sensor_id;sensor_type;location;lat;lon;timestamp;pressure;altitude;pressure_sealevel;temperature;humidity
70690;BME280;58267;51.156;17.044;2023-04-16T00:00:09;99995.10;;;12.54;42.18
70690;BME280;58267;51.156;17.044;2023-04-16T00:02:34;99995.15;;;12.30;41.94
70690;BME280;58267;51.156;17.044;2023-04-16T00:04:59;99996.97;;;12.70;41.76
70690;BME280;58267;51.156;17.044;2023-04-16T00:07:25;99999.00;;;12.86;41.27
70690;BME280;58267;51.156;17.044;2023-04-16T00:09:50;99998.89;;;13.16;41.47
70690;BME280;58267;51.156;17.044;2023-04-16T00:12:15;99996.92;;;12.78;41.69
70690;BME280;58267;51.156;17.044;2023-04-16T00:14:41;99994.86;;;12.80;41.82
70690;BME280;58267;51.156;17.044;2023-04-16T00:17:06;99996.33;;;13.01;41.38
70690;BME280;58267;51.156;17.044;2023-04-16T00:19:31;99994.93;;;12.64;41.66
70690;BME280;58267;51.156;17.044;2023-04-16T00:21:57;99991.96;;;12.85;41.46
70690;BME280;58267;51.156;17.044;2023-04-16T00:24:23;99987.39;;;12.20;41.87
70690;BME280;58267;51.156;17.044;2023-04-16T00:26:48;99987.37;;;12.27;42.01
70690;BME280;58267;51.156;17.044;2023-04-16T00:29:13;99988.89;;;11.95;42.50
70690;BME280;58267;51.156;17.044;2023-04-16T00:31:39;99986.29;;;12.12;42.33
70690;BME280;58267;51.156;17.044;2023-04-16T00:34:05;99986.65;;;11.80;42.66
70690;BME280;58267;51.156;17.044;2023-04-16T00:36:30;99993.18;;;11.47;43.24
70690;BME280;58267;51.156;17.044;2023-04-16T00:38:56;99990.88;;;11.99;42.80
70690;BME280;58267;51.156;17.044;2023-04-16T00:41:21;99993.78;;;12.47;42.51
70690;BME280;58267;51.156;17.044;2023-04-16T00:43:46;99999.51;;;12.13;42.34
70690;BME280;58267;51.156;17.044;2023-04-16T00:46:12;100002.54;;;11.49;43.96
70690;BME280;58267;51.156;17.044;2023-04-16T00:48:39;100005.69;;;11.30;43.75
70690;BME280;58267;51.156;17.044;2023-04-16T00:51:04;100008.11;;;10.74;44.93
70690;BME280;58267;51.156;17.044;2023-04-16T00:53:29;100003.74;;;10.75;44.94
70690;BME280;58267;51.156;17.044;2023-04-16T00:55:54;99999.44;;;10.73;45.52
70690;BME280;58267;51.156;17.044;2023-04-16T00:58:20;99998.79;;;10.94;44.98
70690;BME280;58267;51.156;17.044;2023-04-16T01:00:45;99999.32;;;11.02;44.82
70690;BME280;58267;51.156;17.044;2023-04-16T01:03:11;99997.15;;;11.50;43.81
70690;BME280;58267;51.156;17.044;2023-04-16T01:05:36;100000.97;;;11.03;44.74
70690;BME280;58267;51.156;17.044;2023-04-16T01:08:02;100002.53;;;10.92;44.82
70690;BME280;58267;51.156;17.044;2023-04-16T01:10:27;100005.36;;;10.94;44.50
70690;BME280;58267;51.156;17.044;2023-04-16T01:12:52;100015.90;;;10.96;44.59
70690;BME280;58267;51.156;17.044;2023-04-16T01:15:17;100016.75;;;10.68;44.97
70690;BME280;58267;51.156;17.044;2023-04-16T01:17:45;100021.27;;;10.93;44.38
70690;BME280;58267;51.156;17.044;2023-04-16T01:20:09;100024.76;;;11.02;44.07
70690;BME280;58267;51.156;17.044;2023-04-16T01:22:34;100026.24;;;11.21;43.39
70690;BME280;58267;51.156;17.044;2023-04-16T01:24:59;100031.13;;;11.09;43.72
70690;BME280;58267;51.156;17.044;2023-04-16T01:27:25;100030.20;;;11.25;43.37
70690;BME280;58267;51.156;17.044;2023-04-16T01:29:50;100029.71;;;11.26;43.25
70690;BME280;58267;51.156;17.044;2023-04-16T01:32:16;100028.38;;;11.34;43.04
70690;BME280;58267;51.156;17.044;2023-04-16T01:34:41;100032.43;;;11.16;42.82
70690;BME280;58267;51.156;17.044;2023-04-16T01:37:06;100027.91;;;11.32;42.83
70690;BME280;58267;51.156;17.044;2023-04-16T01:39:32;100026.42;;;11.28;43.00
70690;BME280;58267;51.156;17.044;2023-04-16T01:41:57;100025.03;;;11.31;42.89
70690;BME280;58267;51.156;17.044;2023-04-16T01:44:23;100027.47;;;11.40;42.66
70690;BME280;58267;51.156;17.044;2023-04-16T01:46:48;100030.02;;;11.21;42.92
70690;BME280;58267;51.156;17.044;2023-04-16T01:49:14;100031.87;;;11.11;42.85
70690;BME280;58267;51.156;17.044;2023-04-16T01:51:39;100030.92;;;11.39;42.82
70690;BME280;58267;51.156;17.044;2023-04-16T01:54:05;100033.60;;;11.41;42.63
70690;BME280;58267;51.156;17.044;2023-04-16T01:56:30;100033.53;;;11.19;42.40
70690;BME280;58267;51.156;17.044;2023-04-16T01:58:55;100029.50;;;11.47;42.28
70690;BME280;58267;51.156;17.044;2023-04-16T02:01:21;100028.51;;;10.76;43.42
70690;BME280;58267;51.156;17.044;2023-04-16T02:03:47;100029.98;;;10.19;44.54
70690;BME280;58267;51.156;17.044;2023-04-16T02:06:13;100031.03;;;10.16;44.57
70690;BME280;58267;51.156;17.044;2023-04-16T02:08:38;100032.33;;;9.91;45.11
70690;BME280;58267;51.156;17.044;2023-04-16T02:11:04;100036.79;;;10.34;44.81
70690;BME280;58267;51.156;17.044;2023-04-16T02:13:29;100038.53;;;9.81;45.15
70690;BME280;58267;51.156;17.044;2023-04-16T02:15:55;100038.23;;;10.47;44.84
70690;BME280;58267;51.156;17.044;2023-04-16T02:18:20;100037.42;;;10.09;44.43
70690;BME280;58267;51.156;17.044;2023-04-16T02:20:46;100036.91;;;10.93;43.89
70690;BME280;58267;51.156;17.044;2023-04-16T02:23:11;100039.12;;;10.35;43.98
70690;BME280;58267;51.156;17.044;2023-04-16T02:25:39;100036.35;;;10.32;44.00
70690;BME280;58267;51.156;17.044;2023-04-16T02:28:01;100043.13;;;10.37;43.88
70690;BME280;58267;51.156;17.044;2023-04-16T02:30:27;100045.08;;;10.67;43.53
70690;BME280;58267;51.156;17.044;2023-04-16T02:32:52;100046.91;;;10.72;43.38
70690;BME280;58267;51.156;17.044;2023-04-16T02:35:17;100047.09;;;10.67;43.01
70690;BME280;58267;51.156;17.044;2023-04-16T02:37:43;100049.95;;;10.48;42.78
70690;BME280;58267;51.156;17.044;2023-04-16T02:40:10;100052.15;;;9.51;45.06
70690;BME280;58267;51.156;17.044;2023-04-16T02:42:34;100051.39;;;10.16;43.84
70690;BME280;58267;51.156;17.044;2023-04-16T02:45:00;100051.98;;;10.50;43.62
70690;BME280;58267;51.156;17.044;2023-04-16T02:47:25;100055.32;;;10.10;43.52
70690;BME280;58267;51.156;17.044;2023-04-16T02:49:51;100057.22;;;10.13;43.44
70690;BME280;58267;51.156;17.044;2023-04-16T02:52:16;100061.85;;;10.21;43.36
70690;BME280;58267;51.156;17.044;2023-04-16T02:54:42;100061.51;;;10.52;42.80
70690;BME280;58267;51.156;17.044;2023-04-16T02:57:07;100064.14;;;10.50;42.38
70690;BME280;58267;51.156;17.044;2023-04-16T02:59:33;100073.03;;;9.49;44.51
70690;BME280;58267;51.156;17.044;2023-04-16T03:01:58;100071.73;;;10.58;43.46
70690;BME280;58267;51.156;17.044;2023-04-16T03:04:24;100074.89;;;10.02;43.19
70690;BME280;58267;51.156;17.044;2023-04-16T03:06:49;100079.42;;;9.91;43.20
70690;BME280;58267;51.156;17.044;2023-04-16T03:09:15;100080.22;;;9.87;43.31
70690;BME280;58267;51.156;17.044;2023-04-16T03:11:40;100082.98;;;10.34;43.38
70690;BME280;58267;51.156;17.044;2023-04-16T03:14:06;100082.41;;;10.11;43.31
70690;BME280;58267;51.156;17.044;2023-04-16T03:16:31;100088.16;;;9.68;43.63
70690;BME280;58267;51.156;17.044;2023-04-16T03:18:56;100092.54;;;9.92;43.66
70690;BME280;58267;51.156;17.044;2023-04-16T03:21:22;100095.32;;;9.64;43.70
70690;BME280;58267;51.156;17.044;2023-04-16T03:23:48;100100.75;;;10.11;43.79
70690;BME280;58267;51.156;17.044;2023-04-16T03:26:13;100102.09;;;9.71;43.66
70690;BME280;58267;51.156;17.044;2023-04-16T03:28:38;100104.07;;;10.13;43.74
70690;BME280;58267;51.156;17.044;2023-04-16T03:31:04;100106.05;;;9.48;43.95
70690;BME280;58267;51.156;17.044;2023-04-16T03:33:29;100104.83;;;9.55;44.06
70690;BME280;58267;51.156;17.044;2023-04-16T03:35:55;100109.86;;;9.89;44.42
70690;BME280;58267;51.156;17.044;2023-04-16T03:38:20;100114.50;;;9.34;45.22
70690;BME280;58267;51.156;17.044;2023-04-16T03:40:45;100116.08;;;9.28;45.38
70690;BME280;58267;51.156;17.044;2023-04-16T03:43:10;100119.34;;;9.21;45.17
70690;BME280;58267;51.156;17.044;2023-04-16T03:45:36;100119.49;;;9.89;44.35
70690;BME280;58267;51.156;17.044;2023-04-16T03:48:01;100122.01;;;10.33;43.57
70690;BME280;58267;51.156;17.044;2023-04-16T03:50:27;100123.22;;;10.25;43.76
70690;BME280;58267;51.156;17.044;2023-04-16T03:52:52;100120.97;;;10.16;43.49
70690;BME280;58267;51.156;17.044;2023-04-16T03:55:18;100128.63;;;9.32;44.97
70690;BME280;58267;51.156;17.044;2023-04-16T03:57:43;100128.07;;;9.68;44.53
70690;BME280;58267;51.156;17.044;2023-04-16T04:00:10;100132.25;;;10.15;44.13
70690;BME280;58267;51.156;17.044;2023-04-16T04:02:34;100130.50;;;10.19;44.05
70690;BME280;58267;51.156;17.044;2023-04-16T04:05:00;100136.53;;;10.08;43.80
70690;BME280;58267;51.156;17.044;2023-04-16T04:07:25;100134.34;;;10.03;43.88
70690;BME280;58267;51.156;17.044;2023-04-16T04:09:50;100139.09;;;10.35;43.90
70690;BME280;58267;51.156;17.044;2023-04-16T04:12:16;100145.20;;;10.31;44.11
70690;BME280;58267;51.156;17.044;2023-04-16T04:14:41;100147.52;;;10.00;43.83
70690;BME280;58267;51.156;17.044;2023-04-16T04:17:06;100152.52;;;10.23;43.86
70690;BME280;58267;51.156;17.044;2023-04-16T04:19:32;100155.99;;;10.57;43.68
70690;BME280;58267;51.156;17.044;2023-04-16T04:21:57;100157.64;;;10.65;43.64
70690;BME280;58267;51.156;17.044;2023-04-16T04:24:23;100157.81;;;10.13;43.70
70690;BME280;58267;51.156;17.044;2023-04-16T04:26:49;100163.02;;;10.31;43.96
70690;BME280;58267;51.156;17.044;2023-04-16T04:29:14;100164.75;;;9.96;44.14
70690;BME280;58267;51.156;17.044;2023-04-16T04:31:40;100166.68;;;9.93;44.25
70690;BME280;58267;51.156;17.044;2023-04-16T04:34:05;100165.29;;;10.42;43.96
70690;BME280;58267;51.156;17.044;2023-04-16T04:36:31;100167.41;;;9.95;44.40
70690;BME280;58267;51.156;17.044;2023-04-16T04:38:56;100168.45;;;10.02;44.33
70690;BME280;58267;51.156;17.044;2023-04-16T04:41:21;100169.74;;;9.82;45.25
70690;BME280;58267;51.156;17.044;2023-04-16T04:43:48;100168.91;;;9.95;45.02
70690;BME280;58267;51.156;17.044;2023-04-16T04:46:13;100167.64;;;10.36;44.37
70690;BME280;58267;51.156;17.044;2023-04-16T04:48:38;100168.03;;;10.01;44.61
70690;BME280;58267;51.156;17.044;2023-04-16T04:51:03;100172.61;;;10.11;45.24
70690;BME280;58267;51.156;17.044;2023-04-16T04:53:28;100168.98;;;9.84;45.88
70690;BME280;58267;51.156;17.044;2023-04-16T04:55:54;100170.16;;;9.69;45.77
70690;BME280;58267;51.156;17.044;2023-04-16T04:58:19;100171.23;;;9.89;45.48
70690;BME280;58267;51.156;17.044;2023-04-16T05:00:45;100171.64;;;10.20;45.00
70690;BME280;58267;51.156;17.044;2023-04-16T05:03:11;100174.78;;;10.20;45.06
70690;BME280;58267;51.156;17.044;2023-04-16T05:05:36;100172.75;;;10.00;44.88
70690;BME280;58267;51.156;17.044;2023-04-16T05:08:01;100174.60;;;10.53;44.36
70690;BME280;58267;51.156;17.044;2023-04-16T05:10:27;100173.44;;;10.84;43.93
70690;BME280;58267;51.156;17.044;2023-04-16T05:12:52;100182.95;;;9.49;46.65
70690;BME280;58267;51.156;17.044;2023-04-16T05:15:17;100185.21;;;9.57;46.14
70690;BME280;58267;51.156;17.044;2023-04-16T05:17:42;100187.74;;;9.85;45.51
70690;BME280;58267;51.156;17.044;2023-04-16T05:20:08;100191.22;;;9.97;46.30
70690;BME280;58267;51.156;17.044;2023-04-16T05:22:33;100197.26;;;10.20;45.96
70690;BME280;58267;51.156;17.044;2023-04-16T05:24:58;100204.15;;;9.64;46.38
70690;BME280;58267;51.156;17.044;2023-04-16T05:27:24;100206.56;;;9.19;47.86
70690;BME280;58267;51.156;17.044;2023-04-16T05:29:50;100210.19;;;9.58;47.04
70690;BME280;58267;51.156;17.044;2023-04-16T05:32:15;100215.99;;;10.20;46.13
70690;BME280;58267;51.156;17.044;2023-04-16T05:34:41;100216.31;;;10.13;46.46
70690;BME280;58267;51.156;17.044;2023-04-16T05:37:06;100220.96;;;9.55;46.86
70690;BME280;58267;51.156;17.044;2023-04-16T05:39:31;100222.37;;;9.49;46.85
70690;BME280;58267;51.156;17.044;2023-04-16T05:41:56;100222.77;;;9.31;47.61
70690;BME280;58267;51.156;17.044;2023-04-16T05:44:22;100228.15;;;10.35;45.89
70690;BME280;58267;51.156;17.044;2023-04-16T05:46:47;100227.76;;;10.52;45.32
70690;BME280;58267;51.156;17.044;2023-04-16T05:49:13;100231.97;;;10.71;45.05
70690;BME280;58267;51.156;17.044;2023-04-16T05:51:38;100238.15;;;11.11;44.53
70690;BME280;58267;51.156;17.044;2023-04-16T05:54:03;100239.01;;;11.35;44.29
70690;BME280;58267;51.156;17.044;2023-04-16T05:56:28;100233.63;;;11.52;44.36
70690;BME280;58267;51.156;17.044;2023-04-16T05:58:54;100240.83;;;11.10;45.17
70690;BME280;58267;51.156;17.044;2023-04-16T06:01:21;100246.44;;;10.40;46.31
70690;BME280;58267;51.156;17.044;2023-04-16T06:03:45;100242.14;;;10.85;45.47
70690;BME280;58267;51.156;17.044;2023-04-16T06:06:11;100247.83;;;10.40;46.38
70690;BME280;58267;51.156;17.044;2023-04-16T06:08:36;100249.41;;;11.18;45.14
70690;BME280;58267;51.156;17.044;2023-04-16T06:11:02;100250.13;;;11.34;44.59
70690;BME280;58267;51.156;17.044;2023-04-16T06:13:27;100258.52;;;10.65;45.63
70690;BME280;58267;51.156;17.044;2023-04-16T06:15:52;100264.18;;;10.28;46.90
70690;BME280;58267;51.156;17.044;2023-04-16T06:18:18;100268.30;;;10.46;46.58
70690;BME280;58267;51.156;17.044;2023-04-16T06:20:44;100271.32;;;10.71;46.35
70690;BME280;58267;51.156;17.044;2023-04-16T06:23:09;100274.24;;;10.59;46.59
70690;BME280;58267;51.156;17.044;2023-04-16T06:25:34;100272.56;;;10.55;46.90
70690;BME280;58267;51.156;17.044;2023-04-16T06:27:59;100273.10;;;10.41;47.39
70690;BME280;58267;51.156;17.044;2023-04-16T06:30:25;100272.39;;;9.67;48.80
70690;BME280;58267;51.156;17.044;2023-04-16T06:32:51;100275.17;;;10.62;47.27
70690;BME280;58267;51.156;17.044;2023-04-16T06:35:16;100276.46;;;10.06;48.13
70690;BME280;58267;51.156;17.044;2023-04-16T06:37:42;100283.22;;;10.40;47.59
70690;BME280;58267;51.156;17.044;2023-04-16T06:40:08;100286.22;;;10.66;47.09
70690;BME280;58267;51.156;17.044;2023-04-16T06:42:34;100288.66;;;10.71;47.32
70690;BME280;58267;51.156;17.044;2023-04-16T06:44:59;100288.99;;;11.16;46.06
70690;BME280;58267;51.156;17.044;2023-04-16T06:47:25;100290.59;;;10.34;47.36
70690;BME280;58267;51.156;17.044;2023-04-16T06:49:50;100288.15;;;10.11;48.05
70690;BME280;58267;51.156;17.044;2023-04-16T06:52:16;100285.21;;;10.14;48.34
70690;BME280;58267;51.156;17.044;2023-04-16T06:54:42;100282.95;;;10.73;47.08
70690;BME280;58267;51.156;17.044;2023-04-16T06:57:08;100284.61;;;10.55;47.24
70690;BME280;58267;51.156;17.044;2023-04-16T06:59:33;100287.13;;;10.23;47.99
70690;BME280;58267;51.156;17.044;2023-04-16T07:01:59;100291.12;;;10.33;48.16
70690;BME280;58267;51.156;17.044;2023-04-16T07:04:24;100290.95;;;10.28;48.88
70690;BME280;58267;51.156;17.044;2023-04-16T07:06:49;100296.18;;;10.56;47.70
70690;BME280;58267;51.156;17.044;2023-04-16T07:09:15;100300.62;;;10.38;47.91
70690;BME280;58267;51.156;17.044;2023-04-16T07:11:41;100303.25;;;11.37;46.71
70690;BME280;58267;51.156;17.044;2023-04-16T07:14:05;100304.29;;;11.97;45.53
70690;BME280;58267;51.156;17.044;2023-04-16T07:16:31;100314.54;;;11.15;46.50
70690;BME280;58267;51.156;17.044;2023-04-16T07:18:56;100320.72;;;10.94;47.04
70690;BME280;58267;51.156;17.044;2023-04-16T07:21:22;100322.09;;;10.81;47.19
70690;BME280;58267;51.156;17.044;2023-04-16T07:23:47;100323.33;;;10.75;47.35
70690;BME280;58267;51.156;17.044;2023-04-16T07:26:12;100322.11;;;11.39;46.40
70690;BME280;58267;51.156;17.044;2023-04-16T07:28:37;100321.84;;;10.99;46.72
70690;BME280;58267;51.156;17.044;2023-04-16T07:31:02;100325.02;;;11.65;46.14
70690;BME280;58267;51.156;17.044;2023-04-16T07:33:27;100328.55;;;11.45;45.60
70690;BME280;58267;51.156;17.044;2023-04-16T07:35:53;100331.99;;;11.89;45.28
70690;BME280;58267;51.156;17.044;2023-04-16T07:38:18;100333.75;;;11.45;45.87
70690;BME280;58267;51.156;17.044;2023-04-16T07:40:44;100334.45;;;11.03;46.04
70690;BME280;58267;51.156;17.044;2023-04-16T07:43:09;100339.01;;;11.44;45.91
70690;BME280;58267;51.156;17.044;2023-04-16T07:45:34;100339.28;;;11.48;45.34
70690;BME280;58267;51.156;17.044;2023-04-16T07:48:00;100343.15;;;11.74;44.78
70690;BME280;58267;51.156;17.044;2023-04-16T07:50:25;100337.61;;;12.04;44.50
70690;BME280;58267;51.156;17.044;2023-04-16T07:52:51;100338.05;;;12.29;44.36
70690;BME280;58267;51.156;17.044;2023-04-16T07:55:16;100342.66;;;12.38;44.13
70690;BME280;58267;51.156;17.044;2023-04-16T07:57:42;100342.64;;;11.69;44.79
70690;BME280;58267;51.156;17.044;2023-04-16T08:00:08;100341.37;;;11.83;44.53
70690;BME280;58267;51.156;17.044;2023-04-16T08:02:33;100349.16;;;11.72;45.11
70690;BME280;58267;51.156;17.044;2023-04-16T08:04:59;100342.42;;;12.54;43.49
70690;BME280;58267;51.156;17.044;2023-04-16T08:07:24;100347.39;;;12.72;43.13
70690;BME280;58267;51.156;17.044;2023-04-16T08:09:51;100346.51;;;12.96;42.76
70690;BME280;58267;51.156;17.044;2023-04-16T08:12:15;100349.98;;;13.08;42.78
70690;BME280;58267;51.156;17.044;2023-04-16T08:14:41;100351.41;;;12.90;42.56
70690;BME280;58267;51.156;17.044;2023-04-16T08:17:06;100353.95;;;12.76;42.90
70690;BME280;58267;51.156;17.044;2023-04-16T08:19:31;100357.00;;;12.73;43.15
70690;BME280;58267;51.156;17.044;2023-04-16T08:21:57;100356.92;;;13.33;42.29
70690;BME280;58267;51.156;17.044;2023-04-16T08:24:22;100356.89;;;12.15;44.33
70690;BME280;58267;51.156;17.044;2023-04-16T08:26:48;100354.41;;;12.91;42.80
70690;BME280;58267;51.156;17.044;2023-04-16T08:29:13;100355.86;;;13.47;42.25
70690;BME280;58267;51.156;17.044;2023-04-16T08:31:39;100354.23;;;13.43;41.52
70690;BME280;58267;51.156;17.044;2023-04-16T08:34:04;100358.14;;;13.49;41.83
70690;BME280;58267;51.156;17.044;2023-04-16T08:36:30;100357.58;;;13.27;42.40
70690;BME280;58267;51.156;17.044;2023-04-16T08:38:55;100358.29;;;13.29;42.32
70690;BME280;58267;51.156;17.044;2023-04-16T08:41:21;100359.62;;;13.83;41.52
70690;BME280;58267;51.156;17.044;2023-04-16T08:43:48;100356.87;;;13.65;41.93
70690;BME280;58267;51.156;17.044;2023-04-16T08:46:12;100362.91;;;12.63;43.52
70690;BME280;58267;51.156;17.044;2023-04-16T08:48:37;100360.24;;;13.05;42.99
70690;BME280;58267;51.156;17.044;2023-04-16T08:51:03;100363.65;;;13.70;42.32
70690;BME280;58267;51.156;17.044;2023-04-16T08:53:34;100368.62;;;13.89;41.60
70690;BME280;58267;51.156;17.044;2023-04-16T08:55:57;100375.51;;;13.03;42.85
70690;BME280;58267;51.156;17.044;2023-04-16T08:58:21;100378.49;;;13.84;41.69
70690;BME280;58267;51.156;17.044;2023-04-16T09:00:46;100379.44;;;14.39;40.45
70690;BME280;58267;51.156;17.044;2023-04-16T09:03:10;100384.40;;;14.59;40.26
70690;BME280;58267;51.156;17.044;2023-04-16T09:05:37;100385.27;;;14.48;40.00
70690;BME280;58267;51.156;17.044;2023-04-16T09:08:01;100383.07;;;14.69;39.52
70690;BME280;58267;51.156;17.044;2023-04-16T09:10:27;100383.34;;;14.90;38.95
70690;BME280;58267;51.156;17.044;2023-04-16T09:12:55;100386.61;;;14.88;39.39
70690;BME280;58267;51.156;17.044;2023-04-16T09:15:19;100391.80;;;13.63;40.09
70690;BME280;58267;51.156;17.044;2023-04-16T09:17:43;100393.93;;;13.19;41.38
70690;BME280;58267;51.156;17.044;2023-04-16T09:20:09;100392.99;;;13.72;41.22
70690;BME280;58267;51.156;17.044;2023-04-16T09:22:34;100393.82;;;13.82;40.82
70690;BME280;58267;51.156;17.044;2023-04-16T09:24:59;100392.93;;;13.70;41.66
70690;BME280;58267;51.156;17.044;2023-04-16T09:27:25;100390.85;;;12.25;44.35
70690;BME280;58267;51.156;17.044;2023-04-16T09:29:50;100391.33;;;12.83;43.14
70690;BME280;58267;51.156;17.044;2023-04-16T09:32:16;100392.31;;;13.73;41.21
70690;BME280;58267;51.156;17.044;2023-04-16T09:37:13;100392.44;;;14.39;41.29
70690;BME280;58267;51.156;17.044;2023-04-16T09:39:33;100389.75;;;14.86;39.38
70690;BME280;58267;51.156;17.044;2023-04-16T09:41:59;100391.10;;;14.84;39.76
70690;BME280;58267;51.156;17.044;2023-04-16T09:44:34;100391.68;;;14.56;40.70
70690;BME280;58267;51.156;17.044;2023-04-16T09:46:49;100396.82;;;15.76;39.52
70690;BME280;58267;51.156;17.044;2023-04-16T09:49:15;100399.66;;;14.44;38.42
70690;BME280;58267;51.156;17.044;2023-04-16T09:51:40;100405.28;;;14.64;41.17
70690;BME280;58267;51.156;17.044;2023-04-16T09:54:05;100405.33;;;15.36;38.07
70690;BME280;58267;51.156;17.044;2023-04-16T09:56:30;100406.98;;;15.37;37.46
70690;BME280;58267;51.156;17.044;2023-04-16T09:58:58;100404.81;;;16.12;36.59
70690;BME280;58267;51.156;17.044;2023-04-16T10:01:21;100406.72;;;15.85;36.97
70690;BME280;58267;51.156;17.044;2023-04-16T10:03:48;100408.22;;;14.95;37.90
70690;BME280;58267;51.156;17.044;2023-04-16T10:06:15;100412.03;;;14.66;38.14
70690;BME280;58267;51.156;17.044;2023-04-16T10:08:42;100410.76;;;14.03;39.24
70690;BME280;58267;51.156;17.044;2023-04-16T10:11:03;100413.63;;;13.41;39.52
70690;BME280;58267;51.156;17.044;2023-04-16T10:13:28;100409.68;;;14.34;39.09
70690;BME280;58267;51.156;17.044;2023-04-16T10:15:55;100412.67;;;13.91;39.00
70690;BME280;58267;51.156;17.044;2023-04-16T10:18:19;100409.22;;;14.74;38.50
70690;BME280;58267;51.156;17.044;2023-04-16T10:20:44;100411.55;;;13.56;39.61
70690;BME280;58267;51.156;17.044;2023-04-16T10:23:09;100411.43;;;13.63;39.44
70690;BME280;58267;51.156;17.044;2023-04-16T10:25:35;100412.47;;;13.80;38.86
70690;BME280;58267;51.156;17.044;2023-04-16T10:28:01;100409.90;;;13.49;39.50
70690;BME280;58267;51.156;17.044;2023-04-16T10:30:26;100407.33;;;14.17;38.80
70690;BME280;58267;51.156;17.044;2023-04-16T10:32:52;100404.79;;;14.76;37.83
70690;BME280;58267;51.156;17.044;2023-04-16T10:35:19;100402.91;;;15.15;37.11
70690;BME280;58267;51.156;17.044;2023-04-16T10:37:42;100400.76;;;15.19;36.31
70690;BME280;58267;51.156;17.044;2023-04-16T10:42:33;100402.39;;;15.51;35.51
70690;BME280;58267;51.156;17.044;2023-04-16T10:44:59;100408.54;;;15.81;31.98
70690;BME280;58267;51.156;17.044;2023-04-16T10:47:24;100406.43;;;16.44;32.60
70690;BME280;58267;51.156;17.044;2023-04-16T10:49:50;100412.78;;;15.61;32.48
70690;BME280;58267;51.156;17.044;2023-04-16T10:52:15;100411.55;;;16.59;31.24
70690;BME280;58267;51.156;17.044;2023-04-16T10:54:40;100412.30;;;16.81;30.48
70690;BME280;58267;51.156;17.044;2023-04-16T10:57:08;100408.61;;;16.79;30.77
70690;BME280;58267;51.156;17.044;2023-04-16T10:59:32;100401.86;;;16.25;30.80
70690;BME280;58267;51.156;17.044;2023-04-16T11:01:58;100408.61;;;16.58;31.20
70690;BME280;58267;51.156;17.044;2023-04-16T11:04:27;100412.51;;;16.22;32.02
70690;BME280;58267;51.156;17.044;2023-04-16T11:11:37;100415.59;;;14.24;33.83
70690;BME280;58267;51.156;17.044;2023-04-16T11:14:04;100410.60;;;15.40;33.12
70690;BME280;58267;51.156;17.044;2023-04-16T11:16:27;100412.18;;;15.58;31.88
70690;BME280;58267;51.156;17.044;2023-04-16T11:18:52;100410.80;;;14.90;32.97
70690;BME280;58267;51.156;17.044;2023-04-16T11:21:18;100408.59;;;14.54;32.76
70690;BME280;58267;51.156;17.044;2023-04-16T11:23:47;100406.17;;;15.50;32.74
70690;BME280;58267;51.156;17.044;2023-04-16T11:28:33;100406.23;;;16.19;32.04
70690;BME280;58267;51.156;17.044;2023-04-16T11:30:58;100404.20;;;17.17;32.70
70690;BME280;58267;51.156;17.044;2023-04-16T11:33:24;100406.09;;;16.49;30.93
70690;BME280;58267;51.156;17.044;2023-04-16T11:35:55;100414.43;;;15.72;32.80
70690;BME280;58267;51.156;17.044;2023-04-16T11:38:14;100404.77;;;17.77;31.93
70690;BME280;58267;51.156;17.044;2023-04-16T11:40:41;100413.85;;;18.43;28.73
70690;BME280;58267;51.156;17.044;2023-04-16T11:43:12;100413.27;;;18.22;28.47
70690;BME280;58267;51.156;17.044;2023-04-16T11:45:30;100405.66;;;18.66;29.11
70690;BME280;58267;51.156;17.044;2023-04-16T11:47:55;100406.94;;;19.20;28.53
70690;BME280;58267;51.156;17.044;2023-04-16T11:50:22;100408.96;;;17.56;29.44
70690;BME280;58267;51.156;17.044;2023-04-16T11:52:46;100410.03;;;16.69;30.52
70690;BME280;58267;51.156;17.044;2023-04-16T11:55:12;100401.95;;;17.45;30.98
70690;BME280;58267;51.156;17.044;2023-04-16T11:57:37;100402.22;;;17.71;29.17
70690;BME280;58267;51.156;17.044;2023-04-16T12:00:03;100402.02;;;17.58;30.65
70690;BME280;58267;51.156;17.044;2023-04-16T12:02:34;100396.82;;;18.94;29.08
70690;BME280;58267;51.156;17.044;2023-04-16T12:04:54;100396.52;;;19.84;28.09
70690;BME280;58267;51.156;17.044;2023-04-16T12:07:19;100399.54;;;18.97;27.38
70690;BME280;58267;51.156;17.044;2023-04-16T12:09:45;100408.69;;;16.58;30.98
70690;BME280;58267;51.156;17.044;2023-04-16T12:14:35;100404.92;;;16.25;31.10
70690;BME280;58267;51.156;17.044;2023-04-16T12:19:25;100399.08;;;17.10;30.85
70690;BME280;58267;51.156;17.044;2023-04-16T12:21:51;100403.39;;;17.16;30.71
70690;BME280;58267;51.156;17.044;2023-04-16T12:24:17;100404.21;;;16.59;29.95
70690;BME280;58267;51.156;17.044;2023-04-16T12:26:44;100401.69;;;17.93;28.58
70690;BME280;58267;51.156;17.044;2023-04-16T12:29:15;100396.78;;;18.81;27.87
70690;BME280;58267;51.156;17.044;2023-04-16T12:31:36;100397.96;;;19.31;27.03
70690;BME280;58267;51.156;17.044;2023-04-16T12:34:01;100393.89;;;18.59;27.54
70690;BME280;58267;51.156;17.044;2023-04-16T12:36:23;100390.31;;;18.72;26.55
70690;BME280;58267;51.156;17.044;2023-04-16T12:38:49;100390.24;;;18.39;27.50
70690;BME280;58267;51.156;17.044;2023-04-16T12:41:15;100395.81;;;18.21;27.06
70690;BME280;58267;51.156;17.044;2023-04-16T12:43:41;100393.36;;;18.48;27.21
70690;BME280;58267;51.156;17.044;2023-04-16T12:46:06;100391.43;;;19.19;26.45
70690;BME280;58267;51.156;17.044;2023-04-16T12:48:31;100390.48;;;19.85;25.15